Buoy 46566

sailwx.info

Track history (hours):
 
Tides and Currents Weather Stations Pressure Air Temp Water Temp Dewpoint Dewpoint Depression Visibility Wind Speed Wind Dir Waves Ship Positions

Liao Sui Yu 46566

Last reported at 2017-Nov-18 14:00 UTC. Time now 2017-Nov-18 15:35 UTC.
Position N 33°51' W 144°15'.

Length 30 m.

Type: Fishing. MMSI: 412052352.

Date/timePositionNaut miles runAvg speedWind from/ knotsBaromVisibWave heightAir tempDewpointWater temp
2017-Nov-18 14:00N 33°51' W 144°15'1 0.6
2017-Nov-18 13:00N 33°50' W 144°15'2 1.6
2017-Nov-18 12:00N 33°49' W 144°14'0 0.0
2017-Nov-18 08:00N 33°49' W 144°14'0 0.5
2017-Nov-18 07:00N 33°49' W 144°14'0 0.0
2017-Nov-18 06:00N 33°49' W 144°14'1 0.6
2017-Nov-18 05:00N 33°49' W 144°14'1 0.6
2017-Nov-18 04:00N 33°48' W 144°14'1 0.6
2017-Nov-18 03:00N 33°47' W 144°14'1 1.2
2017-Nov-18 02:00N 33°46' W 144°14'0 0.0
2017-Nov-18 01:00N 33°46' W 144°14'0 0.0
2017-Nov-18 00:00N 33°46' W 144°14'3 3.0
2017-Nov-17 23:00N 33°43' W 144°14'1 0.3
2017-Nov-17 20:00N 33°43' W 144°14'1 0.8
2017-Nov-17 19:00N 33°42' W 144°13'0 0.0
2017-Nov-17 18:00N 33°42' W 144°13'1 1.2
2017-Nov-17 17:00N 33°41' W 144°13'1 0.8
2017-Nov-17 16:00N 33°40' W 144°13'0 0.5
2017-Nov-17 15:00N 33°40' W 144°13'1 0.8
2017-Nov-17 14:00N 33°40' W 144°13'2 1.6
2017-Nov-17 13:00N 33°39' W 144°14'0 0.0
2017-Nov-17 12:00N 33°39' W 144°14'1 0.2
2017-Nov-17 07:00N 33°38' W 144°16'0 0.0
2017-Nov-17 06:00N 33°38' W 144°16'1 0.8
2017-Nov-17 05:00N 33°38' W 144°16'1 0.8
2017-Nov-17 04:00N 33°37' W 144°17'0 0.0
2017-Nov-17 03:00N 33°37' W 144°17'0 0.0
2017-Nov-17 02:00N 33°37' W 144°17'1 0.4
2017-Nov-17 00:00N 33°37' W 144°17'2 0.4
2017-Nov-16 20:00N 33°38' W 144°16'1 0.6
2017-Nov-16 19:00N 33°38' W 144°16'0 0.0
2017-Nov-16 18:00N 33°38' W 144°16'0 0.0
2017-Nov-16 17:00N 33°38' W 144°16'0 0.0
2017-Nov-16 16:00N 33°38' W 144°16'2 1.0
2017-Nov-16 14:00N 33°40' W 144°15'2 2.4
2017-Nov-16 13:00N 33°43' W 144°15'2 2.5
2017-Nov-16 12:00N 33°40' W 144°16'3 0.5
2017-Nov-16 07:00N 33°43' W 144°14'1 0.8
2017-Nov-16 06:00N 33°43' W 144°15'1 0.8
2017-Nov-16 05:00N 33°43' W 144°14'1 0.6
2017-Nov-16 04:00N 33°43' W 144°14'2 1.6
2017-Nov-16 03:00N 33°44' W 144°13'0 0.0
2017-Nov-16 02:00N 33°44' W 144°13'0 0.0
2017-Nov-16 00:00N 33°44' W 144°13'3 2.8
2017-Nov-15 23:00N 33°46' W 144°11'1 0.3
2017-Nov-15 19:00N 33°47' W 144°10'1 0.6
2017-Nov-15 18:00N 33°48' W 144°10'1 0.8
2017-Nov-15 17:00N 33°49' W 144°10'1 0.8
2017-Nov-15 16:00N 33°49' W 144°10'1 1.2
2017-Nov-15 15:00N 33°50' W 144°09'0 0.0
2017-Nov-15 14:00N 33°50' W 144°09'2 1.9
2017-Nov-15 13:00N 33°52' W 144°10'0 0.0
2017-Nov-15 12:00N 33°52' W 144°10'0 0.0
2017-Nov-15 08:00N 33°52' W 144°10'0 0.5
2017-Nov-15 07:00N 33°52' W 144°09'1 0.6
2017-Nov-15 06:00N 33°52' W 144°09'0 0.5
2017-Nov-15 05:00N 33°52' W 144°08'1 1.2
2017-Nov-15 04:00N 33°53' W 144°07'1 1.3
2017-Nov-15 03:00N 33°54' W 144°07'0 0.2
2017-Nov-15 01:00N 33°54' W 144°06'2 1.6
2017-Nov-15 00:00N 33°55' W 144°05'0 0.0
2017-Nov-14 23:00N 33°55' W 144°05'0 0.0
2017-Nov-14 22:00N 33°55' W 144°05'3 1.4
2017-Nov-14 20:00N 33°58' W 144°03'1 0.6
2017-Nov-14 18:00N 33°58' W 144°02'0 0.0
2017-Nov-14 17:00N 33°58' W 144°02'0 0.5
2017-Nov-14 16:00N 33°58' W 144°02'2 1.0
2017-Nov-14 14:00N 33°59' W 144°01'2 2.3
2017-Nov-14 13:00N 34°01' W 143°58'1 0.1
2017-Nov-14 07:00N 34°01' W 143°58'2 1.6
2017-Nov-14 06:00N 34°00' W 143°57'1 1.5
2017-Nov-14 05:00N 34°00' W 143°55'0 0.0
2017-Nov-14 04:00N 34°00' W 143°55'1 1.2
2017-Nov-14 03:00N 34°01' W 143°54'1 1.2
2017-Nov-14 02:00N 34°01' W 143°53'0 0.0
2017-Nov-14 01:00N 34°01' W 143°53'1 1.2
2017-Nov-14 00:00N 34°02' W 143°52'0 0.0
2017-Nov-13 23:00N 34°02' W 143°52'0 0.0
2017-Nov-13 22:00N 34°02' W 143°52'2 1.0
2017-Nov-13 20:00N 34°04' W 143°50'1 0.4
2017-Nov-13 18:00N 34°04' W 143°50'0 0.5
2017-Nov-13 17:00N 34°04' W 143°49'0 0.0
2017-Nov-13 16:00N 34°04' W 143°49'1 0.8
2017-Nov-13 15:00N 34°05' W 143°49'0 0.0
2017-Nov-13 14:00N 34°05' W 143°49'0 0.0
2017-Nov-13 13:00N 34°05' W 143°49'1 0.6
2017-Nov-13 12:00N 34°04' W 143°49'0 0.0
2017-Nov-13 11:00N 34°04' W 143°49'2 0.8
2017-Nov-13 08:00N 34°05' W 143°46'1 1.0
2017-Nov-13 07:00N 34°05' W 143°45'1 0.6
2017-Nov-13 06:00N 34°06' W 143°45'0 0.5
2017-Nov-13 05:00N 34°06' W 143°44'2 2.5
2017-Nov-13 04:00N 34°08' W 143°44'0 0.0
2017-Nov-13 03:00N 34°08' W 143°44'0 0.0
2017-Nov-13 02:00N 34°08' W 143°44'0 0.0
2017-Nov-13 01:00N 34°08' W 143°44'1 0.8
2017-Nov-13 00:00N 34°09' W 143°44'0 0.0
2017-Nov-12 23:00N 34°09' W 143°44'2 0.6
2017-Nov-12 20:00N 34°11' W 143°45'1 0.6
2017-Nov-12 19:00N 34°11' W 143°45'0 0.5
2017-Nov-12 18:00N 34°11' W 143°44'1 0.6
2017-Nov-12 16:00N 34°12' W 143°46'1 1.2
2017-Nov-12 15:00N 34°11' W 143°47'1 0.8
2017-Nov-12 14:00N 34°12' W 143°46'0 0.0
2017-Nov-12 13:00N 34°12' W 143°46'0 0.5
2017-Nov-12 12:00N 34°12' W 143°46'0 0.0
2017-Nov-12 11:00N 34°12' W 143°46'2 0.4
2017-Nov-12 07:00N 34°13' W 143°44'1 0.6
2017-Nov-12 06:00N 34°13' W 143°44'1 0.6
2017-Nov-12 05:00N 34°14' W 143°44'0 0.5
2017-Nov-12 04:00N 34°14' W 143°43'1 0.6
2017-Nov-12 03:00N 34°14' W 143°43'1 0.6
2017-Nov-12 02:00N 34°15' W 143°43'0 0.0
2017-Nov-12 01:00N 34°15' W 143°43'1 0.6
2017-Nov-12 00:00N 34°16' W 143°43'0 0.0
2017-Nov-11 23:00N 34°16' W 143°43'1 0.2
2017-Nov-11 19:00N 34°16' W 143°44'0 0.2
2017-Nov-11 17:00N 34°16' W 143°44'0 0.5
2017-Nov-11 16:00N 34°16' W 143°43'0 0.0
2017-Nov-11 15:00N 34°16' W 143°43'1 1.0
2017-Nov-11 14:00N 34°16' W 143°42'0 0.0
2017-Nov-11 13:00N 34°16' W 143°42'1 0.8
2017-Nov-11 12:00N 34°16' W 143°41'1 1.2
2017-Nov-11 11:00N 34°16' W 143°43'2 0.5
2017-Nov-11 07:00N 34°17' W 143°41'1 1.3
2017-Nov-11 06:00N 34°18' W 143°40'0 0.0
2017-Nov-11 05:00N 34°18' W 143°40'1 0.8
2017-Nov-11 04:00N 34°19' W 143°40'1 0.6
2017-Nov-11 03:00N 34°19' W 143°40'1 0.6
2017-Nov-11 02:00N 34°20' W 143°40'0 0.0
2017-Nov-11 01:00N 34°20' W 143°40'2 2.1
2017-Nov-11 00:00N 34°20' W 143°42'0 0.0
2017-Nov-10 23:00N 34°20' W 143°42'1 0.3
2017-Nov-10 19:00N 34°19' W 143°41'0 0.0
2017-Nov-10 18:00N 34°19' W 143°41'1 0.8
2017-Nov-10 17:00N 34°19' W 143°41'0 0.0
2017-Nov-10 16:00N 34°19' W 143°41'1 0.5
2017-Nov-10 14:00N 34°19' W 143°40'1 0.6
2017-Nov-10 13:00N 34°19' W 143°40'2 2.5
2017-Nov-10 12:00N 34°22' W 143°39'0 0.0
2017-Nov-10 07:00N 34°22' W 143°39'1 0.6
2017-Nov-10 06:00N 34°22' W 143°39'0 0.5
2017-Nov-10 05:00N 34°22' W 143°40'1 0.8
2017-Nov-10 04:00N 34°23' W 143°40'1 0.6
2017-Nov-10 03:00N 34°23' W 143°40'0 0.5
2017-Nov-10 02:00N 34°23' W 143°41'0 0.5
2017-Nov-10 01:00N 34°23' W 143°41'0 0.0
2017-Nov-10 00:00N 34°23' W 143°41'0 0.0
2017-Nov-09 23:00N 34°23' W 143°41'1 0.3
2017-Nov-09 20:00N 34°23' W 143°43'0 0.2
2017-Nov-09 18:00N 34°23' W 143°42'1 0.6
2017-Nov-09 17:00N 34°24' W 143°42'0 0.0
2017-Nov-09 16:00N 34°24' W 143°42'1 0.6
2017-Nov-09 15:00N 34°25' W 143°42'0 0.5
2017-Nov-09 14:00N 34°25' W 143°41'1 0.8
2017-Nov-09 13:00N 34°25' W 143°42'3 3.4
2017-Nov-09 12:00N 34°28' W 143°45'1 0.2
2017-Nov-09 07:00N 34°28' W 143°46'2 1.6
2017-Nov-09 06:00N 34°29' W 143°47'0 0.0
2017-Nov-09 05:00N 34°29' W 143°47'1 1.2
2017-Nov-09 04:00N 34°30' W 143°48'0 0.0
2017-Nov-09 03:00N 34°30' W 143°48'1 1.5
2017-Nov-09 02:00N 34°30' W 143°50'0 0.0
2017-Nov-09 01:00N 34°30' W 143°50'0 0.5
2017-Nov-09 00:00N 34°30' W 143°49'0 0.0
2017-Nov-08 23:00N 34°30' W 143°49'1 0.5
2017-Nov-08 20:00N 34°30' W 143°51'0 0.5
2017-Nov-08 19:00N 34°30' W 143°50'1 0.6
2017-Nov-08 18:00N 34°31' W 143°50'1 0.6
2017-Nov-08 17:00N 34°31' W 143°50'1 0.6
2017-Nov-08 16:00N 34°32' W 143°50'1 1.3
2017-Nov-08 15:00N 34°33' W 143°51'0 0.5
2017-Nov-08 14:00N 34°33' W 143°50'  
Track history (hours):
 
Tides and Currents Weather Stations Pressure Air Temp Water Temp Dewpoint Dewpoint Depression Visibility Wind Speed Wind Dir Waves Ship Positions

Liao Sui Yu 46566

Last reported at 2017-Nov-18 14:00 UTC. Time now 2017-Nov-18 15:35 UTC.
Position N 33°51' W 144°15'.

Length 30 m.

Type: Fishing. MMSI: 412052352.

Date/timePositionNaut miles runAvg speedWind from/ knotsBaromVisibWave heightAir tempDewpointWater temp
2017-Nov-18 14:00N 33°51' W 144°15'1 0.6
2017-Nov-18 13:00N 33°50' W 144°15'2 1.6
2017-Nov-18 12:00N 33°49' W 144°14'0 0.0
2017-Nov-18 08:00N 33°49' W 144°14'0 0.5
2017-Nov-18 07:00N 33°49' W 144°14'0 0.0
2017-Nov-18 06:00N 33°49' W 144°14'1 0.6
2017-Nov-18 05:00N 33°49' W 144°14'1 0.6
2017-Nov-18 04:00N 33°48' W 144°14'1 0.6
2017-Nov-18 03:00N 33°47' W 144°14'1 1.2
2017-Nov-18 02:00N 33°46' W 144°14'0 0.0
2017-Nov-18 01:00N 33°46' W 144°14'0 0.0
2017-Nov-18 00:00N 33°46' W 144°14'3 3.0
2017-Nov-17 23:00N 33°43' W 144°14'1 0.3
2017-Nov-17 20:00N 33°43' W 144°14'1 0.8
2017-Nov-17 19:00N 33°42' W 144°13'0 0.0
2017-Nov-17 18:00N 33°42' W 144°13'1 1.2
2017-Nov-17 17:00N 33°41' W 144°13'1 0.8
2017-Nov-17 16:00N 33°40' W 144°13'0 0.5
2017-Nov-17 15:00N 33°40' W 144°13'1 0.8
2017-Nov-17 14:00N 33°40' W 144°13'2 1.6
2017-Nov-17 13:00N 33°39' W 144°14'0 0.0
2017-Nov-17 12:00N 33°39' W 144°14'1 0.2
2017-Nov-17 07:00N 33°38' W 144°16'0 0.0
2017-Nov-17 06:00N 33°38' W 144°16'1 0.8
2017-Nov-17 05:00N 33°38' W 144°16'1 0.8
2017-Nov-17 04:00N 33°37' W 144°17'0 0.0
2017-Nov-17 03:00N 33°37' W 144°17'0 0.0
2017-Nov-17 02:00N 33°37' W 144°17'1 0.4
2017-Nov-17 00:00N 33°37' W 144°17'2 0.4
2017-Nov-16 20:00N 33°38' W 144°16'1 0.6
2017-Nov-16 19:00N 33°38' W 144°16'0 0.0
2017-Nov-16 18:00N 33°38' W 144°16'0 0.0
2017-Nov-16 17:00N 33°38' W 144°16'0 0.0
2017-Nov-16 16:00N 33°38' W 144°16'2 1.0
2017-Nov-16 14:00N 33°40' W 144°15'2 2.4
2017-Nov-16 13:00N 33°43' W 144°15'2 2.5
2017-Nov-16 12:00N 33°40' W 144°16'3 0.5
2017-Nov-16 07:00N 33°43' W 144°14'1 0.8
2017-Nov-16 06:00N 33°43' W 144°15'1 0.8
2017-Nov-16 05:00N 33°43' W 144°14'1 0.6
2017-Nov-16 04:00N 33°43' W 144°14'2 1.6
2017-Nov-16 03:00N 33°44' W 144°13'0 0.0
2017-Nov-16 02:00N 33°44' W 144°13'0 0.0
2017-Nov-16 00:00N 33°44' W 144°13'3 2.8
2017-Nov-15 23:00N 33°46' W 144°11'1 0.3
2017-Nov-15 19:00N 33°47' W 144°10'1 0.6
2017-Nov-15 18:00N 33°48' W 144°10'1 0.8
2017-Nov-15 17:00N 33°49' W 144°10'1 0.8
2017-Nov-15 16:00N 33°49' W 144°10'1 1.2
2017-Nov-15 15:00N 33°50' W 144°09'0 0.0
2017-Nov-15 14:00N 33°50' W 144°09'2 1.9
2017-Nov-15 13:00N 33°52' W 144°10'0 0.0
2017-Nov-15 12:00N 33°52' W 144°10'0 0.0
2017-Nov-15 08:00N 33°52' W 144°10'0 0.5
2017-Nov-15 07:00N 33°52' W 144°09'1 0.6
2017-Nov-15 06:00N 33°52' W 144°09'0 0.5
2017-Nov-15 05:00N 33°52' W 144°08'1 1.2
2017-Nov-15 04:00N 33°53' W 144°07'1 1.3
2017-Nov-15 03:00N 33°54' W 144°07'0 0.2
2017-Nov-15 01:00N 33°54' W 144°06'2 1.6
2017-Nov-15 00:00N 33°55' W 144°05'0 0.0
2017-Nov-14 23:00N 33°55' W 144°05'0 0.0
2017-Nov-14 22:00N 33°55' W 144°05'3 1.4
2017-Nov-14 20:00N 33°58' W 144°03'1 0.6
2017-Nov-14 18:00N 33°58' W 144°02'0 0.0
2017-Nov-14 17:00N 33°58' W 144°02'0 0.5
2017-Nov-14 16:00N 33°58' W 144°02'2 1.0
2017-Nov-14 14:00N 33°59' W 144°01'2 2.3
2017-Nov-14 13:00N 34°01' W 143°58'1 0.1
2017-Nov-14 07:00N 34°01' W 143°58'2 1.6
2017-Nov-14 06:00N 34°00' W 143°57'1 1.5
2017-Nov-14 05:00N 34°00' W 143°55'0 0.0
2017-Nov-14 04:00N 34°00' W 143°55'1 1.2
2017-Nov-14 03:00N 34°01' W 143°54'1 1.2
2017-Nov-14 02:00N 34°01' W 143°53'0 0.0
2017-Nov-14 01:00N 34°01' W 143°53'1 1.2
2017-Nov-14 00:00N 34°02' W 143°52'0 0.0
2017-Nov-13 23:00N 34°02' W 143°52'0 0.0
2017-Nov-13 22:00N 34°02' W 143°52'2 1.0
2017-Nov-13 20:00N 34°04' W 143°50'1 0.4
2017-Nov-13 18:00N 34°04' W 143°50'0 0.5
2017-Nov-13 17:00N 34°04' W 143°49'0 0.0
2017-Nov-13 16:00N 34°04' W 143°49'1 0.8
2017-Nov-13 15:00N 34°05' W 143°49'0 0.0
2017-Nov-13 14:00N 34°05' W 143°49'0 0.0
2017-Nov-13 13:00N 34°05' W 143°49'1 0.6
2017-Nov-13 12:00N 34°04' W 143°49'0 0.0
2017-Nov-13 11:00N 34°04' W 143°49'2 0.8
2017-Nov-13 08:00N 34°05' W 143°46'1 1.0
2017-Nov-13 07:00N 34°05' W 143°45'1 0.6
2017-Nov-13 06:00N 34°06' W 143°45'0 0.5
2017-Nov-13 05:00N 34°06' W 143°44'2 2.5
2017-Nov-13 04:00N 34°08' W 143°44'0 0.0
2017-Nov-13 03:00N 34°08' W 143°44'0 0.0
2017-Nov-13 02:00N 34°08' W 143°44'0 0.0
2017-Nov-13 01:00N 34°08' W 143°44'1 0.8
2017-Nov-13 00:00N 34°09' W 143°44'0 0.0
2017-Nov-12 23:00N 34°09' W 143°44'2 0.6
2017-Nov-12 20:00N 34°11' W 143°45'1 0.6
2017-Nov-12 19:00N 34°11' W 143°45'0 0.5
2017-Nov-12 18:00N 34°11' W 143°44'1 0.6
2017-Nov-12 16:00N 34°12' W 143°46'1 1.2
2017-Nov-12 15:00N 34°11' W 143°47'1 0.8
2017-Nov-12 14:00N 34°12' W 143°46'0 0.0
2017-Nov-12 13:00N 34°12' W 143°46'0 0.5
2017-Nov-12 12:00N 34°12' W 143°46'0 0.0
2017-Nov-12 11:00N 34°12' W 143°46'2 0.4
2017-Nov-12 07:00N 34°13' W 143°44'1 0.6
2017-Nov-12 06:00N 34°13' W 143°44'1 0.6
2017-Nov-12 05:00N 34°14' W 143°44'0 0.5
2017-Nov-12 04:00N 34°14' W 143°43'1 0.6
2017-Nov-12 03:00N 34°14' W 143°43'1 0.6
2017-Nov-12 02:00N 34°15' W 143°43'0 0.0
2017-Nov-12 01:00N 34°15' W 143°43'1 0.6
2017-Nov-12 00:00N 34°16' W 143°43'0 0.0
2017-Nov-11 23:00N 34°16' W 143°43'1 0.2
2017-Nov-11 19:00N 34°16' W 143°44'0 0.2
2017-Nov-11 17:00N 34°16' W 143°44'0 0.5
2017-Nov-11 16:00N 34°16' W 143°43'0 0.0
2017-Nov-11 15:00N 34°16' W 143°43'1 1.0
2017-Nov-11 14:00N 34°16' W 143°42'0 0.0
2017-Nov-11 13:00N 34°16' W 143°42'1 0.8
2017-Nov-11 12:00N 34°16' W 143°41'1 1.2
2017-Nov-11 11:00N 34°16' W 143°43'2 0.5
2017-Nov-11 07:00N 34°17' W 143°41'1 1.3
2017-Nov-11 06:00N 34°18' W 143°40'0 0.0
2017-Nov-11 05:00N 34°18' W 143°40'1 0.8
2017-Nov-11 04:00N 34°19' W 143°40'1 0.6
2017-Nov-11 03:00N 34°19' W 143°40'1 0.6
2017-Nov-11 02:00N 34°20' W 143°40'0 0.0
2017-Nov-11 01:00N 34°20' W 143°40'2 2.1
2017-Nov-11 00:00N 34°20' W 143°42'0 0.0
2017-Nov-10 23:00N 34°20' W 143°42'1 0.3
2017-Nov-10 19:00N 34°19' W 143°41'0 0.0
2017-Nov-10 18:00N 34°19' W 143°41'1 0.8
2017-Nov-10 17:00N 34°19' W 143°41'0 0.0
2017-Nov-10 16:00N 34°19' W 143°41'1 0.5
2017-Nov-10 14:00N 34°19' W 143°40'1 0.6
2017-Nov-10 13:00N 34°19' W 143°40'2 2.5
2017-Nov-10 12:00N 34°22' W 143°39'0 0.0
2017-Nov-10 07:00N 34°22' W 143°39'1 0.6
2017-Nov-10 06:00N 34°22' W 143°39'0 0.5
2017-Nov-10 05:00N 34°22' W 143°40'1 0.8
2017-Nov-10 04:00N 34°23' W 143°40'1 0.6
2017-Nov-10 03:00N 34°23' W 143°40'0 0.5
2017-Nov-10 02:00N 34°23' W 143°41'0 0.5
2017-Nov-10 01:00N 34°23' W 143°41'0 0.0
2017-Nov-10 00:00N 34°23' W 143°41'0 0.0
2017-Nov-09 23:00N 34°23' W 143°41'1 0.3
2017-Nov-09 20:00N 34°23' W 143°43'0 0.2
2017-Nov-09 18:00N 34°23' W 143°42'1 0.6
2017-Nov-09 17:00N 34°24' W 143°42'0 0.0
2017-Nov-09 16:00N 34°24' W 143°42'1 0.6
2017-Nov-09 15:00N 34°25' W 143°42'0 0.5
2017-Nov-09 14:00N 34°25' W 143°41'1 0.8
2017-Nov-09 13:00N 34°25' W 143°42'3 3.4
2017-Nov-09 12:00N 34°28' W 143°45'1 0.2
2017-Nov-09 07:00N 34°28' W 143°46'2 1.6
2017-Nov-09 06:00N 34°29' W 143°47'0 0.0
2017-Nov-09 05:00N 34°29' W 143°47'1 1.2
2017-Nov-09 04:00N 34°30' W 143°48'0 0.0
2017-Nov-09 03:00N 34°30' W 143°48'1 1.5
2017-Nov-09 02:00N 34°30' W 143°50'0 0.0
2017-Nov-09 01:00N 34°30' W 143°50'0 0.5
2017-Nov-09 00:00N 34°30' W 143°49'0 0.0
2017-Nov-08 23:00N 34°30' W 143°49'1 0.5
2017-Nov-08 20:00N 34°30' W 143°51'0 0.5
2017-Nov-08 19:00N 34°30' W 143°50'1 0.6
2017-Nov-08 18:00N 34°31' W 143°50'1 0.6
2017-Nov-08 17:00N 34°31' W 143°50'1 0.6
2017-Nov-08 16:00N 34°32' W 143°50'1 1.3
2017-Nov-08 15:00N 34°33' W 143°51'0 0.5
2017-Nov-08 14:00N 34°33' W 143°50'  

Dump ship's entire track history